This is the latest recevied weather packets stored in our database for station/object CE1RLP-31. If no packets are shown the sender has not sent any weather packets the latest 10 day(s).
| Time | Temp. | Humidity | Pressure | Rain* | Wind** | Luminosity | Snow |
|---|---|---|---|---|---|---|---|
| 1777690356 | 8.89° C | 8% | 1100.8 hPa | - | - | - | - |
| 1777689456 | 8.89° C | 9% | 1100.7 hPa | - | - | - | - |
| 1777688556 | 8.89° C | 9% | 1100.9 hPa | - | - | - | - |
| 1777687656 | 9.44° C | 8% | 1100.9 hPa | - | - | - | - |
| 1777686756 | 9.44° C | 9% | 1100.9 hPa | - | - | - | - |
| 1777685856 | 9.44° C | 8% | 1100.9 hPa | - | - | - | - |
| 1777684956 | 9.44° C | 8% | 1101.1 hPa | - | - | - | - |
| 1777684056 | 5.56° C | 8% | 1097.3 hPa | - | - | - | - |
| 1777683156 | 9.44° C | 7% | 1100.8 hPa | - | - | - | - |
| 1777682256 | 9.44° C | 7% | 1100.7 hPa | - | - | - | - |
| 1777681356 | 9.44° C | 7% | 1100.6 hPa | - | - | - | - |
| 1777680456 | 9.44° C | 6% | 1100.5 hPa | - | - | - | - |
| 1777679555 | 10° C | 6% | 1100.4 hPa | - | - | - | - |
| 1777678655 | 10° C | 6% | 1100.3 hPa | - | - | - | - |
| 1777677755 | 10.56° C | 6% | 1100.2 hPa | - | - | - | - |
| 1777676855 | 11.11° C | 7% | 1100 hPa | - | - | - | - |
| 1777675955 | 11.11° C | 7% | 1099.9 hPa | - | - | - | - |
| 1777675055 | 12.22° C | 8% | 1099.9 hPa | - | - | - | - |
| 1777674156 | 12.22° C | 8% | 1099.9 hPa | - | - | - | - |
| 1777673255 | 12.78° C | 9% | 1099.9 hPa | - | - | - | - |
| 1777672356 | 12.78° C | 9% | 1099.8 hPa | - | - | - | - |
| 1777671456 | 13.33° C | 8% | 1099.8 hPa | - | - | - | - |
| 1777670556 | 13.33° C | 9% | 1099.7 hPa | - | - | - | - |
| 1777669656 | 13.33° C | 9% | 1099.8 hPa | - | - | - | - |
| 1777668756 | 13.89° C | 9% | 1099.6 hPa | - | - | - | - |
* Rain since midnight (hover to see other rain measurements)
** Current wind speed in m/s (hover to see current wind gust speed)